Time;durP1;ratioP1;P1;durP2;ratioP2;P2;SDS_P1;SDS_P2;PMS_P1;PMS_P2;Temp;Humidity;BMP_temperature;BMP_pressure;BME280_temperature;BME280_humidity;BME280_pressure;Samples;Min_cycle;Max_cycle;Signal;HPM_P1;HPM_P2
2021/12/08 00:02:15;;;;;;;6.15;3.45;;;3.20;99.90;;;;;;5061204;28;20110;-70
2021/12/08 00:04:41;;;;;;;13.52;4.10;;;3.20;99.90;;;;;;5059108;28;20824;-70
2021/12/08 00:07:08;;;;;;;8.05;3.80;;;3.10;99.90;;;;;;5044764;28;20051;-70
2021/12/08 00:09:47;;;;;;;9.35;3.70;;;3.10;99.90;;;;;;5060848;28;20068;-69
2021/12/08 00:14:59;;;;;;;9.07;3.63;;;3.10;99.90;;;;;;5082066;28;20054;-69
2021/12/08 00:17:25;;;;;;;8.32;3.42;;;3.10;99.90;;;;;;5056651;28;20099;-70
2021/12/08 00:19:51;;;;;;;8.35;4.05;;;3.10;99.90;;;;;;5060916;28;20038;-70
2021/12/08 00:22:17;;;;;;;8.52;3.63;;;3.10;99.90;;;;;;5042323;28;20055;-71
2021/12/08 00:24:44;;;;;;;6.88;3.50;;;3.40;99.90;;;;;;5060558;28;20052;-70
2021/12/08 00:27:11;;;;;;;12.60;4.35;;;3.10;99.90;;;;;;5059253;28;20057;-71
2021/12/08 00:29:37;;;;;;;6.18;3.70;;;3.10;99.90;;;;;;5060590;28;20033;-70
2021/12/08 00:32:03;;;;;;;7.88;3.53;;;3.20;99.90;;;;;;5041778;28;20072;-69
2021/12/08 00:34:31;;;;;;;8.45;3.30;;;3.20;99.90;;;;;;5082155;28;20113;-70
2021/12/08 00:37:00;;;;;;;8.93;3.40;;;3.10;99.90;;;;;;5049997;28;20079;-70
2021/12/08 00:39:26;;;;;;;6.95;3.15;;;3.20;99.90;;;;;;5076288;28;20048;-70
2021/12/08 00:41:51;;;;;;;10.25;4.38;;;3.30;99.90;;;;;;5043921;28;20055;-70
2021/12/08 00:44:17;;;;;;;7.53;3.10;;;3.30;99.90;;;;;;5058857;28;20049;-70
2021/12/08 00:46:44;;;;;;;7.63;3.20;;;3.30;99.90;;;;;;5043980;28;20052;-70
2021/12/08 00:49:11;;;;;;;6.57;3.20;;;3.30;99.90;;;;;;5059546;28;20045;-70
2021/12/08 00:51:37;;;;;;;6.63;3.25;;;3.30;99.90;;;;;;5054062;28;20477;-70
2021/12/08 00:54:03;;;;;;;7.70;3.17;;;3.40;99.90;;;;;;5076681;28;20453;-71
2021/12/08 00:56:29;;;;;;;6.22;2.95;;;3.40;99.90;;;;;;5047254;28;20056;-71
2021/12/08 00:58:55;;;;;;;8.48;3.20;;;3.40;99.90;;;;;;5044059;28;20049;-70
2021/12/08 01:01:22;;;;;;;7.20;3.10;;;4.20;99.90;;;;;;5057911;28;20124;-70
2021/12/08 01:03:49;;;;;;;8.90;2.75;;;3.40;99.90;;;;;;5061822;28;20061;-70
2021/12/08 01:06:17;;;;;;;6.30;2.85;;;3.40;99.90;;;;;;5059734;28;20049;-70
2021/12/08 01:08:43;;;;;;;7.10;3.30;;;3.50;99.90;;;;;;5058989;28;20041;-71
2021/12/08 01:11:13;;;;;;;8.00;3.10;;;3.40;99.90;;;;;;5043722;28;20033;-70
2021/12/08 01:13:39;;;;;;;5.65;2.92;;;3.30;99.90;;;;;;5076062;28;20034;-71
2021/12/08 01:16:05;;;;;;;4.65;2.60;;;3.30;99.90;;;;;;5056114;28;20044;-70
2021/12/08 01:18:32;;;;;;;10.05;3.22;;;3.60;99.90;;;;;;5049299;28;20077;-70
2021/12/08 01:21:00;;;;;;;9.02;3.00;;;3.40;99.90;;;;;;5048791;28;20056;-71
2021/12/08 01:23:27;;;;;;;9.60;4.97;;;3.40;99.90;;;;;;5059056;28;20060;-70
2021/12/08 01:25:54;;;;;;;6.82;3.30;;;3.40;99.90;;;;;;5073043;28;20428;-71
2021/12/08 01:28:22;;;;;;;7.32;2.85;;;3.40;99.90;;;;;;5073035;28;20056;-70
2021/12/08 01:30:49;;;;;;;7.00;2.97;;;3.40;99.90;;;;;;5057566;28;20105;-70
2021/12/08 01:33:16;;;;;;;7.05;2.67;;;3.40;99.90;;;;;;5042723;28;20112;-70
2021/12/08 01:35:42;;;;;;;5.65;2.78;;;3.40;99.90;;;;;;5058062;28;20056;-71
2021/12/08 01:38:08;;;;;;;6.85;3.30;;;3.40;99.90;;;;;;5059774;28;20401;-71
2021/12/08 01:40:34;;;;;;;4.25;2.67;;;3.60;99.90;;;;;;5059707;28;20045;-71
2021/12/08 01:43:02;;;;;;;7.10;3.05;;;3.50;99.90;;;;;;5057221;28;20045;-70
2021/12/08 01:48:17;;;;;;;6.07;3.30;;;3.40;99.90;;;;;;5091390;28;20084;-71
2021/12/08 01:50:46;;;;;;;4.60;2.50;;;3.40;99.90;;;;;;5046547;28;20048;-70
2021/12/08 01:53:12;;;;;;;10.15;3.85;;;3.40;99.90;;;;;;5052752;28;20044;-70
2021/12/08 01:55:39;;;;;;;4.22;2.75;;;3.50;99.90;;;;;;5088243;28;20161;-71
2021/12/08 01:58:07;;;;;;;6.22;2.83;;;3.50;99.90;;;;;;5057782;28;20041;-70
2021/12/08 02:00:39;;;;;;;6.82;2.92;;;3.40;99.90;;;;;;5057479;28;20083;-70
2021/12/08 02:03:09;;;;;;;7.78;3.13;;;3.40;99.90;;;;;;5042833;28;20099;-70
2021/12/08 02:05:35;;;;;;;5.85;2.70;;;3.40;99.90;;;;;;5023986;28;20049;-70
2021/12/08 02:08:01;;;;;;;6.90;3.28;;;3.40;99.90;;;;;;5058925;28;20091;-69
2021/12/08 02:10:27;;;;;;;6.18;2.75;;;3.40;99.90;;;;;;5059105;28;20481;-70
2021/12/08 02:12:53;;;;;;;6.05;3.00;;;3.30;99.90;;;;;;5075088;28;20060;-71
2021/12/08 02:15:20;;;;;;;4.47;2.88;;;3.40;99.90;;;;;;5081162;28;20056;-71
2021/12/08 02:17:50;;;;;;;7.00;2.67;;;3.40;99.90;;;;;;5056294;28;20056;-71
2021/12/08 02:20:17;;;;;;;4.97;3.05;;;3.40;99.90;;;;;;5058987;28;20053;-71
2021/12/08 02:22:43;;;;;;;7.07;3.40;;;3.40;99.90;;;;;;5040754;28;20094;-69
2021/12/08 02:25:13;;;;;;;5.28;2.60;;;3.40;99.90;;;;;;5087564;28;20116;-70
2021/12/08 02:27:38;;;;;;;7.78;3.58;;;3.40;99.90;;;;;;5042327;28;20393;-70
2021/12/08 02:30:16;;;;;;;5.35;2.55;;;3.60;99.90;;;;;;5041012;28;20059;-71
2021/12/08 02:48:52;;;;;;;4.90;3.15;;;3.50;99.90;;;;;;5035356;28;20549;-71
2021/12/08 02:51:20;;;;;;;5.70;3.00;;;3.50;99.90;;;;;;5088146;28;20095;-71
2021/12/08 02:53:47;;;;;;;7.43;3.05;;;3.50;99.90;;;;;;5054292;28;20245;-70
2021/12/08 02:56:14;;;;;;;6.03;2.80;;;3.50;99.90;;;;;;5060778;28;20037;-70
2021/12/08 02:58:40;;;;;;;5.80;3.33;;;3.50;99.90;;;;;;5046243;28;20052;-69
2021/12/08 03:01:08;;;;;;;6.07;3.22;;;3.50;99.90;;;;;;5043636;28;20041;-70
2021/12/08 03:03:35;;;;;;;9.63;2.90;;;3.50;99.90;;;;;;5046015;28;20045;-71
2021/12/08 03:06:01;;;;;;;7.47;3.20;;;3.50;99.90;;;;;;5061889;28;20128;-70
2021/12/08 03:08:27;;;;;;;6.45;2.78;;;3.70;99.90;;;;;;5078362;28;20087;-71
2021/12/08 03:10:54;;;;;;;8.82;3.20;;;3.70;99.90;;;;;;5046215;28;20049;-72
2021/12/08 03:13:29;;;;;;;4.85;2.63;;;3.60;99.90;;;;;;5060172;28;20045;-70
2021/12/08 03:15:54;;;;;;;8.40;3.38;;;3.70;99.90;;;;;;5026446;28;20421;-70
2021/12/08 03:18:20;;;;;;;6.90;3.40;;;3.60;99.90;;;;;;5052284;28;20045;-70
2021/12/08 03:20:46;;;;;;;6.63;3.28;;;3.70;99.90;;;;;;5043210;28;20182;-70
2021/12/08 03:23:21;;;;;;;7.93;3.55;;;3.70;99.90;;;;;;5028466;28;20103;-71
2021/12/08 03:25:55;;;;;;;5.78;3.05;;;4.10;99.90;;;;;;5073481;28;20049;-71
2021/12/08 03:28:27;;;;;;;6.40;4.05;;;3.70;99.90;;;;;;5079165;28;20517;-71
2021/12/08 03:31:05;;;;;;;6.85;3.67;;;3.70;99.90;;;;;;5061346;28;20033;-71
2021/12/08 03:33:31;;;;;;;8.18;3.30;;;3.80;99.90;;;;;;5060614;28;20068;-71
2021/12/08 03:35:58;;;;;;;5.78;3.67;;;4.00;99.90;;;;;;5061116;28;20041;-71
2021/12/08 03:38:25;;;;;;;8.60;3.78;;;3.80;99.90;;;;;;5062428;28;20051;-71
2021/12/08 03:40:52;;;;;;;7.93;4.00;;;3.80;99.90;;;;;;5062172;28;20060;-71
2021/12/08 03:43:18;;;;;;;5.68;3.63;;;3.90;99.90;;;;;;5043152;28;20045;-72
2021/12/08 03:45:47;;;;;;;6.80;4.13;;;3.90;99.90;;;;;;5062015;28;20051;-71
2021/12/08 03:48:27;;;;;;;5.65;4.10;;;4.00;99.90;;;;;;5060047;28;20448;-71
2021/12/08 03:50:54;;;;;;;7.97;4.13;;;3.90;99.90;;;;;;5046722;28;20450;-71
2021/12/08 03:53:21;;;;;;;7.30;4.13;;;4.00;99.90;;;;;;5045568;28;20128;-71
2021/12/08 03:55:49;;;;;;;10.73;5.20;;;4.00;99.90;;;;;;5093116;28;20048;-72
2021/12/08 03:58:16;;;;;;;7.82;4.32;;;4.10;99.90;;;;;;5061410;28;20080;-72
2021/12/08 04:00:44;;;;;;;9.82;4.88;;;4.10;99.90;;;;;;5075594;28;20044;-71
2021/12/08 04:03:12;;;;;;;10.02;5.15;;;4.20;99.90;;;;;;5063070;28;20041;-71
2021/12/08 04:06:04;;;;;;;8.48;4.40;;;4.20;99.90;;;;;;5026085;28;20057;-71
2021/12/08 04:08:38;;;;;;;9.40;5.10;;;4.30;99.90;;;;;;5033289;28;20049;-70
2021/12/08 04:11:05;;;;;;;8.18;5.05;;;4.30;99.90;;;;;;5061283;28;20049;-72
2021/12/08 04:13:54;;;;;;;8.10;5.05;;;4.30;99.90;;;;;;5043110;28;20053;-71
2021/12/08 04:16:24;;;;;;;6.88;4.90;;;4.30;99.90;;;;;;5063000;28;20088;-71
2021/12/08 04:18:51;;;;;;;10.10;5.65;;;4.30;99.90;;;;;;5060176;28;20120;-70
2021/12/08 04:21:17;;;;;;;11.30;5.70;;;4.40;99.90;;;;;;5061664;28;20091;-71
2021/12/08 04:23:44;;;;;;;8.05;4.85;;;4.30;99.90;;;;;;5060537;28;20081;-71
2021/12/08 04:26:23;;;;;;;9.10;5.30;;;4.30;99.90;;;;;;5059137;28;20420;-71
2021/12/08 04:28:50;;;;;;;6.97;5.18;;;4.30;99.90;;;;;;5076515;28;20060;-71
2021/12/08 04:31:29;;;;;;;7.03;5.22;;;4.30;99.90;;;;;;5056008;28;20054;-71
2021/12/08 04:34:00;;;;;;;8.20;5.50;;;4.30;99.90;;;;;;5080024;28;20055;-72
2021/12/08 04:36:40;;;;;;;10.02;6.00;;;4.30;99.90;;;;;;5060594;28;20056;-71
2021/12/08 04:39:12;;;;;;;7.47;5.38;;;4.30;99.90;;;;;;5058370;28;20099;-71
2021/12/08 04:41:44;;;;;;;7.80;5.10;;;4.40;99.90;;;;;;5060727;28;20079;-71
2021/12/08 05:09:21;;;;;;;8.38;5.05;;;4.50;99.90;;;;;;5072362;28;20472;-70
2021/12/08 05:12:00;;;;;;;8.88;5.55;;;4.50;99.90;;;;;;5053986;28;20051;-71
2021/12/08 05:14:31;;;;;;;9.15;5.30;;;4.50;99.90;;;;;;5058479;28;20048;-72
2021/12/08 05:17:07;;;;;;;6.78;4.80;;;4.50;99.90;;;;;;5057785;28;20076;-72
2021/12/08 05:19:34;;;;;;;9.43;5.90;;;4.50;99.90;;;;;;5066829;28;20041;-71
2021/12/08 05:22:11;;;;;;;9.93;5.30;;;4.70;99.90;;;;;;5041576;28;20040;-71
2021/12/08 05:24:42;;;;;;;6.75;4.47;;;4.60;99.90;;;;;;5084034;28;20642;-71
2021/12/08 05:27:40;;;;;;;7.00;5.38;;;4.60;99.90;;;;;;5052458;28;20075;-71
2021/12/08 05:30:11;;;;;;;13.48;5.53;;;4.60;99.90;;;;;;5058427;28;20156;-71
2021/12/08 05:32:38;;;;;;;8.20;4.43;;;4.60;99.90;;;;;;5045867;28;20061;-71
2021/12/08 05:35:06;;;;;;;7.57;4.63;;;4.60;99.90;;;;;;5054715;28;20045;-72
2021/12/08 05:37:32;;;;;;;9.75;6.25;;;4.60;99.90;;;;;;5059964;28;20067;-71
2021/12/08 05:39:58;;;;;;;9.50;5.30;;;4.60;99.90;;;;;;5058282;28;20106;-70
2021/12/08 05:42:29;;;;;;;7.97;4.30;;;4.60;99.90;;;;;;5089573;28;20041;-71
2021/12/08 05:44:55;;;;;;;8.02;4.63;;;4.60;99.90;;;;;;5039949;28;20045;-71
2021/12/08 05:47:26;;;;;;;7.72;4.45;;;4.60;99.90;;;;;;5043790;28;20077;-71
2021/12/08 05:49:53;;;;;;;10.63;5.07;;;4.70;99.90;;;;;;5040365;28;20037;-72
2021/12/08 05:52:19;;;;;;;10.98;5.50;;;4.70;99.90;;;;;;5045347;28;20042;-72
2021/12/08 05:54:47;;;;;;;7.93;4.70;;;4.80;99.90;;;;;;5052925;28;20098;-71
2021/12/08 05:57:18;;;;;;;7.97;4.35;;;4.60;99.90;;;;;;5058268;28;20071;-71
2021/12/08 05:59:45;;;;;;;7.90;4.35;;;4.60;99.90;;;;;;5058863;28;20045;-71
2021/12/08 06:02:22;;;;;;;11.77;4.35;;;4.60;99.90;;;;;;5076151;28;20433;-70
2021/12/08 06:04:48;;;;;;;7.50;4.45;;;4.60;99.90;;;;;;5057453;28;20111;-71
2021/12/08 06:07:15;;;;;;;7.38;4.30;;;4.60;99.90;;;;;;5059542;28;20040;-71
2021/12/08 06:09:41;;;;;;;7.57;4.10;;;4.60;99.90;;;;;;5057608;28;20045;-71
2021/12/08 06:12:09;;;;;;;9.10;4.97;;;4.60;99.90;;;;;;5029417;28;20041;-71
2021/12/08 06:14:37;;;;;;;8.13;4.57;;;4.50;99.90;;;;;;5033362;28;20041;-71
2021/12/08 06:17:10;;;;;;;11.30;5.85;;;4.50;99.90;;;;;;5058257;28;20098;-71
2021/12/08 06:19:37;;;;;;;11.30;6.38;;;4.40;99.90;;;;;;5059279;28;20039;-71
2021/12/08 06:22:08;;;;;;;16.08;8.05;;;4.40;99.90;;;;;;5073710;28;20056;-71
2021/12/08 06:24:34;;;;;;;17.08;7.35;;;4.40;99.90;;;;;;5042171;28;20045;-71
2021/12/08 06:27:01;;;;;;;13.60;6.93;;;4.40;99.90;;;;;;5040938;28;20045;-71
2021/12/08 06:29:26;;;;;;;11.35;6.28;;;4.40;99.90;;;;;;5061582;28;20053;-71
2021/12/08 06:31:56;;;;;;;12.02;6.75;;;4.40;99.90;;;;;;5060632;28;20111;-71
2021/12/08 06:34:25;;;;;;;11.43;5.32;;;4.50;99.90;;;;;;5061442;28;20052;-72
2021/12/08 06:37:07;;;;;;;11.35;5.95;;;4.50;99.90;;;;;;5065107;28;20040;-71
2021/12/08 06:39:46;;;;;;;11.63;6.20;;;4.60;99.90;;;;;;5061471;28;20105;-71
2021/12/08 06:42:16;;;;;;;13.60;6.22;;;4.60;99.90;;;;;;5063216;28;20052;-71
2021/12/08 06:44:46;;;;;;;10.70;6.07;;;4.70;99.90;;;;;;5079917;28;20045;-71
2021/12/08 06:47:16;;;;;;;13.18;6.32;;;4.70;99.90;;;;;;5061425;28;20122;-71
2021/12/08 06:49:45;;;;;;;9.23;4.68;;;4.70;99.90;;;;;;5062931;28;20055;-71
2021/12/08 06:52:27;;;;;;;11.00;6.00;;;4.70;99.90;;;;;;5068603;28;20055;-71
2021/12/08 06:55:18;;;;;;;8.20;4.95;;;4.70;99.90;;;;;;5062609;28;20034;-71
2021/12/08 06:57:53;;;;;;;8.07;4.80;;;4.70;99.90;;;;;;5062957;28;20516;-71
2021/12/08 07:01:08;;;;;;;10.32;4.93;;;4.70;99.90;;;;;;5081156;28;20045;-71
2021/12/08 07:03:52;;;;;;;9.15;4.15;;;4.70;99.90;;;;;;5054827;28;20049;-71
2021/12/08 07:07:09;;;;;;;7.72;3.67;;;4.70;99.90;;;;;;5061891;28;20056;-70
2021/12/08 07:09:28;;;;;;;6.90;3.70;;;4.70;99.90;;;;;;5056885;28;20068;-71
2021/12/08 07:11:57;;;;;;;9.35;3.97;;;4.70;99.90;;;;;;5078411;28;20045;-71
2021/12/08 07:14:25;;;;;;;7.63;4.10;;;4.70;99.90;;;;;;5061957;28;20409;-71
2021/12/08 07:16:54;;;;;;;6.40;3.67;;;4.90;99.90;;;;;;5060554;28;20045;-71
2021/12/08 07:19:52;;;;;;;6.53;3.75;;;4.70;99.90;;;;;;5051338;28;20072;-71
2021/12/08 07:22:25;;;;;;;7.97;4.10;;;4.90;99.90;;;;;;5047212;28;20057;-73
2021/12/08 07:24:53;;;;;;;7.15;3.45;;;4.70;99.90;;;;;;5094980;28;20048;-71
2021/12/08 07:27:29;;;;;;;7.03;3.63;;;4.70;99.90;;;;;;5077087;28;20504;-71
2021/12/08 07:29:58;;;;;;;9.07;3.88;;;4.80;99.90;;;;;;5040080;28;20120;-71
2021/12/08 07:32:32;;;;;;;7.93;3.13;;;4.80;99.90;;;;;;5075115;28;20124;-71
2021/12/08 07:35:01;;;;;;;7.80;3.08;;;4.80;99.90;;;;;;5058719;28;20052;-71
2021/12/08 07:37:31;;;;;;;7.65;3.25;;;4.90;99.90;;;;;;5077999;28;20094;-71
2021/12/08 07:40:17;;;;;;;9.75;3.40;;;5.00;99.90;;;;;;5075094;28;20457;-70
2021/12/08 07:42:58;;;;;;;9.53;3.23;;;5.00;99.90;;;;;;5058905;28;20053;-71
2021/12/08 07:45:33;;;;;;;6.00;3.10;;;5.10;99.90;;;;;;5061031;28;20060;-71
2021/12/08 07:48:01;;;;;;;5.32;2.40;;;5.10;99.90;;;;;;5085897;28;20080;-71
2021/12/08 07:51:00;;;;;;;9.00;2.67;;;5.20;99.90;;;;;;5058399;28;20413;-71
2021/12/08 07:53:27;;;;;;;6.18;2.53;;;5.20;99.90;;;;;;5044756;28;20060;-69
2021/12/08 07:56:00;;;;;;;7.13;2.67;;;5.20;99.90;;;;;;5074922;28;20048;-71
2021/12/08 07:58:26;;;;;;;7.60;2.20;;;5.20;99.90;;;;;;5022830;28;20049;-70
2021/12/08 08:00:57;;;;;;;4.93;2.38;;;5.30;99.90;;;;;;5044294;28;20059;-71
2021/12/08 08:03:25;;;;;;;7.03;2.45;;;5.20;99.90;;;;;;5062204;28;20138;-71
2021/12/08 08:05:53;;;;;;;8.77;2.28;;;5.20;99.90;;;;;;5059675;28;20041;-70
2021/12/08 08:08:21;;;;;;;6.28;1.95;;;5.20;99.90;;;;;;5060656;28;20041;-71
2021/12/08 08:10:56;;;;;;;6.32;2.70;;;5.30;99.90;;;;;;5060978;28;20378;-71
2021/12/08 08:13:23;;;;;;;7.95;2.33;;;5.30;99.90;;;;;;5050522;28;20061;-71
2021/12/08 08:15:56;;;;;;;6.57;2.47;;;5.20;99.90;;;;;;5042381;28;20042;-70
2021/12/08 08:18:26;;;;;;;9.27;2.90;;;5.30;99.90;;;;;;5041526;28;20049;-69
2021/12/08 08:20:55;;;;;;;6.43;2.65;;;5.30;99.90;;;;;;5038115;28;20068;-69
2021/12/08 08:23:23;;;;;;;5.70;2.55;;;5.20;99.90;;;;;;5023554;28;20053;-70
2021/12/08 08:25:51;;;;;;;5.32;1.80;;;5.20;99.90;;;;;;5076801;28;20071;-71
2021/12/08 08:28:21;;;;;;;5.50;1.90;;;5.20;99.90;;;;;;5036104;28;20053;-70
2021/12/08 08:31:02;;;;;;;7.68;2.55;;;5.20;99.90;;;;;;5057109;28;20068;-71
2021/12/08 08:33:29;;;;;;;6.60;2.72;;;5.20;99.90;;;;;;5042464;28;20075;-69
2021/12/08 08:35:58;;;;;;;9.15;1.80;;;5.10;99.90;;;;;;5043863;28;20091;-69
2021/12/08 08:38:36;;;;;;;6.97;1.90;;;5.70;99.90;;;;;;5054174;28;20025;-71
2021/12/08 08:41:12;;;;;;;2.65;1.73;;;5.30;99.90;;;;;;5056969;28;20057;-71
2021/12/08 08:43:38;;;;;;;4.82;2.10;;;5.30;99.90;;;;;;5071152;28;20042;-72
2021/12/08 08:46:09;;;;;;;4.53;1.63;;;5.40;99.90;;;;;;5072887;28;20056;-72
2021/12/08 08:48:42;;;;;;;7.15;2.13;;;5.40;99.90;;;;;;5039215;28;20404;-72
2021/12/08 08:51:17;;;;;;;6.28;1.95;;;5.40;99.90;;;;;;5056123;28;20104;-70
2021/12/08 08:53:46;;;;;;;9.85;1.92;;;5.40;99.90;;;;;;5055875;28;20073;-71
2021/12/08 08:56:23;;;;;;;5.07;1.90;;;5.40;99.90;;;;;;5037289;28;20050;-70
2021/12/08 08:58:50;;;;;;;;;;;5.40;99.90;;;;;;5047031;28;20052;-70
2021/12/08 09:01:26;;;;;;;4.38;1.70;;;5.40;99.90;;;;;;5058529;28;19925;-71
2021/12/08 09:03:59;;;;;;;9.30;2.08;;;5.40;99.90;;;;;;5055133;28;20057;-70
2021/12/08 09:06:31;;;;;;;5.28;1.83;;;5.40;99.90;;;;;;5079571;28;20080;-68
2021/12/08 09:09:01;;;;;;;4.35;1.77;;;5.50;99.90;;;;;;5045917;28;20048;-69
2021/12/08 09:11:34;;;;;;;4.85;1.92;;;5.50;99.90;;;;;;5045423;28;20752;-68
2021/12/08 09:14:19;;;;;;;9.40;2.05;;;6.40;99.90;;;;;;5058580;28;20072;-71
2021/12/08 09:17:00;;;;;;;3.83;1.52;;;5.70;99.90;;;;;;5040596;28;20095;-69
2021/12/08 09:19:36;;;;;;;6.78;1.92;;;5.70;99.90;;;;;;5073180;28;20045;-71
2021/12/08 09:22:11;;;;;;;8.20;2.38;;;5.80;99.90;;;;;;5060651;28;20064;-69
2021/12/08 09:24:46;;;;;;;10.00;2.30;;;5.90;99.90;;;;;;5063487;28;20094;-69
2021/12/08 09:27:17;;;;;;;5.65;1.90;;;5.90;99.90;;;;;;5053862;28;20307;-71
2021/12/08 09:29:48;;;;;;;6.60;2.72;;;6.00;99.90;;;;;;5054354;28;20049;-70
2021/12/08 09:32:18;;;;;;;5.13;1.95;;;6.00;99.90;;;;;;5072359;28;20056;-70
2021/12/08 09:34:57;;;;;;;4.32;2.00;;;6.00;99.90;;;;;;5036968;28;20409;-71
2021/12/08 09:37:28;;;;;;;7.35;1.77;;;5.90;99.90;;;;;;5039566;28;20041;-68
2021/12/08 09:40:05;;;;;;;8.50;2.03;;;5.90;99.90;;;;;;5036519;28;20053;-71
2021/12/08 09:42:47;;;;;;;7.10;2.22;;;5.90;99.90;;;;;;5054417;28;20049;-70
2021/12/08 09:45:19;;;;;;;6.28;2.10;;;5.90;99.90;;;;;;5072069;28;20077;-69
2021/12/08 09:47:45;;;;;;;7.50;2.88;;;5.80;99.90;;;;;;5018986;28;20129;-69
2021/12/08 09:50:13;;;;;;;6.53;1.70;;;5.90;99.90;;;;;;5038980;28;20042;-70
2021/12/08 09:52:41;;;;;;;5.43;1.98;;;5.80;99.90;;;;;;5038075;28;20048;-69
2021/12/08 09:55:10;;;;;;;7.30;3.00;;;5.80;99.90;;;;;;5091059;28;20080;-71
2021/12/08 09:57:36;;;;;;;8.98;2.40;;;5.80;99.90;;;;;;5059230;28;20079;-70
2021/12/08 10:00:06;;;;;;;6.93;2.05;;;5.80;99.90;;;;;;5073425;28;20131;-69
2021/12/08 10:02:34;;;;;;;8.45;2.88;;;5.90;99.90;;;;;;5059500;28;20505;-70
2021/12/08 10:05:06;;;;;;;7.25;2.53;;;5.90;99.90;;;;;;5056886;28;20098;-71
2021/12/08 10:07:32;;;;;;;5.43;2.53;;;5.90;99.90;;;;;;5058589;28;20129;-71
2021/12/08 10:09:58;;;;;;;12.73;2.35;;;6.00;99.90;;;;;;5057974;28;20539;-68
2021/12/08 10:12:24;;;;;;;8.95;3.03;;;6.80;99.90;;;;;;5074500;28;20049;-70
2021/12/08 10:14:50;;;;;;;5.53;1.70;;;6.00;99.90;;;;;;5041895;28;20120;-69
2021/12/08 10:17:17;;;;;;;8.15;2.90;;;6.00;99.90;;;;;;5056530;28;20491;-69
2021/12/08 10:19:46;;;;;;;9.68;2.30;;;6.00;99.90;;;;;;5041978;28;20041;-69
2021/12/08 10:22:22;;;;;;;4.75;1.85;;;6.10;99.90;;;;;;5056927;28;20063;-69
2021/12/08 10:25:13;;;;;;;5.95;2.38;;;6.10;99.90;;;;;;5091699;28;20060;-69
2021/12/08 10:28:09;;;;;;;6.45;2.30;;;6.50;99.90;;;;;;5058082;28;20083;-69
2021/12/08 10:30:47;;;;;;;6.60;2.28;;;6.40;99.90;;;;;;5055117;28;20069;-69
2021/12/08 10:33:39;;;;;;;7.22;2.28;;;6.30;99.90;;;;;;5039858;28;20053;-69
2021/12/08 10:36:20;;;;;;;6.22;1.70;;;6.30;99.90;;;;;;5038114;28;20053;-70
2021/12/08 10:38:46;;;;;;;9.57;2.50;;;6.70;99.90;;;;;;5035975;28;20046;-71
2021/12/08 10:41:11;;;;;;;7.15;2.55;;;6.90;99.90;;;;;;5055146;28;20494;-72
2021/12/08 10:43:37;;;;;;;7.20;2.63;;;6.90;99.90;;;;;;5003500;28;20059;-72
2021/12/08 10:46:10;;;;;;;4.88;2.20;;;6.90;99.90;;;;;;5038211;28;20046;-72
2021/12/08 10:48:43;;;;;;;7.32;2.10;;;7.10;99.90;;;;;;5020400;28;20080;-71
2021/12/08 10:54:26;;;;;;;6.10;2.20;;;6.80;99.90;;;;;;5039738;28;20106;-71
2021/12/08 10:56:57;;;;;;;5.75;2.38;;;6.60;99.90;;;;;;5036931;28;20107;-69
2021/12/08 10:59:54;;;;;;;7.40;2.72;;;6.80;99.90;;;;;;5032228;28;20128;-71
2021/12/08 11:02:49;;;;;;;7.03;2.05;;;6.80;99.90;;;;;;5002114;28;20486;-70
2021/12/08 11:05:23;;;;;;;7.22;2.28;;;6.70;99.90;;;;;;5060105;28;20099;-69
2021/12/08 11:08:07;;;;;;;5.15;2.38;;;6.60;99.90;;;;;;5021156;28;20069;-70
2021/12/08 11:10:37;;;;;;;5.32;1.95;;;6.50;99.90;;;;;;5037393;28;20041;-69
2021/12/08 11:13:03;;;;;;;7.28;2.42;;;6.50;99.90;;;;;;5036289;28;20037;-70
2021/12/08 11:15:31;;;;;;;6.63;2.15;;;6.70;99.90;;;;;;5040437;28;20047;-68
2021/12/08 11:18:22;;;;;;;6.97;2.22;;;6.60;99.90;;;;;;5005255;28;20042;-71
2021/12/08 11:20:58;;;;;;;4.57;2.22;;;6.60;99.90;;;;;;5040118;28;20049;-70
2021/12/08 11:23:40;;;;;;;8.20;2.60;;;6.50;99.90;;;;;;5074708;28;20064;-71
2021/12/08 11:26:26;;;;;;;8.57;2.90;;;6.60;99.90;;;;;;5071677;28;20049;-71
2021/12/08 11:28:59;;;;;;;5.00;2.25;;;6.50;99.90;;;;;;5074436;28;20077;-70
2021/12/08 11:31:33;;;;;;;10.63;2.80;;;6.50;99.90;;;;;;5039758;28;20061;-71
2021/12/08 11:34:01;;;;;;;5.68;2.13;;;6.40;99.90;;;;;;5072682;28;20053;-70
2021/12/08 11:36:30;;;;;;;6.20;2.20;;;6.40;99.90;;;;;;5040800;28;20057;-71
2021/12/08 11:38:57;;;;;;;7.05;2.55;;;6.40;99.90;;;;;;5038396;28;20045;-70
2021/12/08 11:41:29;;;;;;;7.75;2.67;;;6.40;99.90;;;;;;5024342;28;20045;-71
2021/12/08 11:43:57;;;;;;;4.68;2.00;;;6.50;99.90;;;;;;5039814;28;20045;-71
2021/12/08 11:46:24;;;;;;;6.95;2.40;;;6.50;99.90;;;;;;5040747;28;20069;-69
2021/12/08 11:49:05;;;;;;;8.07;2.15;;;6.40;99.90;;;;;;5073443;28;20401;-70
2021/12/08 11:51:50;;;;;;;8.27;2.75;;;6.40;99.90;;;;;;5039872;28;20048;-71
2021/12/08 11:55:02;;;;;;;9.10;2.55;;;6.30;99.90;;;;;;5040980;28;20136;-70
2021/12/08 11:57:44;;;;;;;5.53;1.85;;;6.30;99.90;;;;;;4967616;28;20051;-70
2021/12/08 12:00:15;;;;;;;4.70;2.08;;;6.30;99.90;;;;;;4981188;28;20038;-71
2021/12/08 12:02:44;;;;;;;5.22;2.35;;;6.30;99.90;;;;;;5020812;28;20058;-71
2021/12/08 12:05:14;;;;;;;11.80;2.80;;;6.30;99.90;;;;;;5038708;28;20413;-71
2021/12/08 12:07:40;;;;;;;6.00;2.63;;;6.30;99.90;;;;;;5057445;28;20072;-70
2021/12/08 12:10:10;;;;;;;6.00;2.30;;;6.30;99.90;;;;;;5039286;28;20113;-70
2021/12/08 12:12:40;;;;;;;4.72;2.17;;;6.30;99.90;;;;;;5038171;28;20042;-71
2021/12/08 12:15:12;;;;;;;5.30;2.20;;;5.80;99.90;;;;;;5025013;28;20442;-71
2021/12/08 12:17:38;;;;;;;6.80;2.20;;;6.20;99.90;;;;;;5038481;28;20056;-71
2021/12/08 12:20:12;;;;;;;5.32;2.15;;;6.20;99.90;;;;;;5040263;28;20049;-71
2021/12/08 12:23:15;;;;;;;5.80;2.28;;;6.30;99.90;;;;;;5039740;28;20398;-70
2021/12/08 12:26:09;;;;;;;5.10;2.55;;;6.30;99.90;;;;;;5020659;28;20054;-71
2021/12/08 12:28:53;;;;;;;8.25;2.13;;;6.30;99.90;;;;;;5056417;28;20049;-71
2021/12/08 12:31:37;;;;;;;3.40;1.95;;;6.30;99.90;;;;;;5039986;28;20417;-70
2021/12/08 12:34:23;;;;;;;5.30;2.22;;;6.30;99.90;;;;;;5037741;28;20049;-71
2021/12/08 12:36:48;;;;;;;5.82;1.70;;;6.20;99.90;;;;;;5073503;28;20064;-70
2021/12/08 12:39:20;;;;;;;4.40;2.03;;;6.20;99.90;;;;;;5037345;28;20041;-71
2021/12/08 12:42:11;;;;;;;4.15;1.70;;;6.20;99.90;;;;;;5072809;28;20049;-69
2021/12/08 12:44:39;;;;;;;6.63;2.42;;;6.20;99.90;;;;;;5040812;28;20121;-70
2021/12/08 12:47:06;;;;;;;7.30;2.35;;;6.20;99.90;;;;;;5019723;28;20025;-71
2021/12/08 12:49:33;;;;;;;5.20;2.03;;;6.20;99.90;;;;;;5039192;28;20049;-71
2021/12/08 12:52:07;;;;;;;6.38;2.22;;;6.20;99.90;;;;;;5020605;28;20033;-70
2021/12/08 12:54:33;;;;;;;5.78;2.13;;;6.20;99.90;;;;;;5039219;28;20057;-71
2021/12/08 12:57:03;;;;;;;8.20;2.22;;;6.20;99.90;;;;;;5038810;28;20060;-71
2021/12/08 12:59:51;;;;;;;3.72;1.50;;;6.20;99.90;;;;;;5038654;28;20049;-70
2021/12/08 13:02:33;;;;;;;4.00;1.92;;;6.20;99.90;;;;;;5039293;28;20057;-69
2021/12/08 13:05:08;;;;;;;8.02;2.65;;;6.20;99.90;;;;;;5036825;28;20057;-70
2021/12/08 13:07:39;;;;;;;5.93;1.92;;;6.20;99.90;;;;;;5055639;28;20076;-70
2021/12/08 13:10:08;;;;;;;10.50;2.30;;;6.20;99.90;;;;;;5039982;28;20053;-70
2021/12/08 13:12:34;;;;;;;4.45;2.20;;;6.20;99.90;;;;;;5037472;28;20136;-71
2021/12/08 13:15:06;;;;;;;4.93;2.05;;;6.20;99.90;;;;;;5039136;28;20037;-71
2021/12/08 13:17:32;;;;;;;3.53;1.63;;;6.20;99.90;;;;;;5037813;28;20401;-70
2021/12/08 13:20:00;;;;;;;6.18;2.10;;;6.20;99.90;;;;;;5038812;28;20113;-71
2021/12/08 13:22:48;;;;;;;6.57;2.03;;;6.20;99.90;;;;;;5036922;28;20037;-71
2021/12/08 13:28:48;;;;;;;5.25;2.05;;;6.20;99.90;;;;;;5039391;28;20045;-71
2021/12/08 13:31:49;;;;;;;;;;;6.20;99.90;;;;;;5037565;28;20057;-70
2021/12/08 13:34:14;;;;;;;3.97;1.55;;;6.20;99.90;;;;;;5049399;28;19944;-70
2021/12/08 13:36:46;;;;;;;4.22;1.58;;;6.20;99.90;;;;;;5072441;28;20104;-70
2021/12/08 13:39:12;;;;;;;6.53;2.45;;;6.20;99.90;;;;;;5035597;28;20456;-71
2021/12/08 13:41:39;;;;;;;5.90;1.70;;;6.20;99.90;;;;;;5038765;28;20080;-71
2021/12/08 13:44:24;;;;;;;5.72;2.08;;;6.70;99.90;;;;;;5020777;28;20045;-70
2021/12/08 13:46:54;;;;;;;9.48;2.03;;;6.20;99.90;;;;;;5038336;28;20041;-70
2021/12/08 13:49:26;;;;;;;8.95;2.28;;;6.20;99.90;;;;;;5038563;28;20049;-70
2021/12/08 13:52:07;;;;;;;4.43;1.80;;;6.20;99.90;;;;;;5037459;28;20075;-70
2021/12/08 13:54:41;;;;;;;4.18;1.92;;;6.20;99.90;;;;;;5038687;28;20100;-70
2021/12/08 13:57:27;;;;;;;5.68;1.95;;;6.20;99.90;;;;;;5037329;28;20124;-70
2021/12/08 14:00:04;;;;;;;10.43;3.10;;;6.20;99.90;;;;;;5019545;28;20123;-70
2021/12/08 14:02:36;;;;;;;8.25;2.00;;;6.20;99.90;;;;;;5038416;28;20053;-71
2021/12/08 14:05:07;;;;;;;6.30;2.10;;;6.20;99.90;;;;;;5034840;28;20064;-70
2021/12/08 14:07:36;;;;;;;7.93;2.28;;;6.20;99.90;;;;;;5071582;28;20083;-71
2021/12/08 14:10:09;;;;;;;7.13;2.90;;;6.40;99.90;;;;;;5037559;28;20441;-71
2021/12/08 14:13:10;;;;;;;5.47;2.10;;;6.20;99.90;;;;;;5036882;28;20068;-69
2021/12/08 14:16:04;;;;;;;5.47;2.30;;;6.20;99.90;;;;;;5038091;28;20069;-70